Fulton County Airport

About
Name: Fulton County Airport
Identifier:  RCR/KRCR
Local Time:  23. Aug 01:30 EDT
Location
Flights per Day
0 flights
Distance: 290km (180mi)
Punctuality
66% (0 flights per day delayed)
Delay Average: 35 minutes
Current Weather
 18 C (Humidity: 72%)
  3kt (5km/h / 3mph) from 30°
  Scattered clouds at 8,000 feet (2,438 meter)
  16km (10 mi.)
 METAR KRCR 230455Z AUTO 03003KT 10SM SCT080 18/13 A3008 RMK AO2

Current Flights

Departures
Number Departure To Airline
Arrivals
Number Arrival From Airline

Current Delays

Departures
N/A
Arrivals
N/A

Destinations

Top Destinations
Airport Flights
per week
Seats
per week
  Franklin (FKL) 0 - 0 0
  Ankeny (QQK) 0 - 0 0
  South Bend (SBN) 0 - 0 0
  Toledo (TOL) 0 - 0 0
  Washington (WSG) 0 - 0 0
  Huntsville (HSV) 0 - 0 0
  Traverse City (TVC) 0 - 0 0
  Big Rapids (WBR) 0 - 0 0

Airlines & Planes

Top Airlines
Airline Flights
per Day
Seats
per Day
  Flybe Nordic 0 -
  Nolinor Aviation 0 -
Delta Private Jets 0 -
Top Plane Types
Model Flights Seats
Cessna C182 0.1/day - 0
Piper PA-31-350 0.1/day - 0
Cessna C56X 0.0/day - 0